Time;durP1;ratioP1;P1;durP2;ratioP2;P2;SDS_P1;SDS_P2;PMS_P1;PMS_P2;Temp;Humidity;BMP_temperature;BMP_pressure;BME280_temperature;BME280_humidity;BME280_pressure;Samples;Min_cycle;Max_cycle;Signal;HPM_P1;HPM_P2
2022/11/15 00:02:04;;;;;;;;;;;;;;;8.74;63.51;95308.00;5047140;28;20445;-65
2022/11/15 00:04:29;;;;;;;;;;;;;;;8.74;63.54;95305.34;5044378;28;20032;-64
2022/11/15 00:06:55;;;;;;;;;;;;;;;8.72;63.18;95312.03;5048785;28;20475;-65
2022/11/15 00:09:20;;;;;;;;;;;;;;;8.69;63.58;95302.75;5045588;28;20009;-65
2022/11/15 00:11:45;;;;;;;;;;;;;;;8.66;63.57;95306.00;5047658;28;20114;-68
2022/11/15 00:14:10;;;;;;;;;;;;;;;8.65;64.03;95301.78;5046018;28;20071;-65
2022/11/15 00:16:35;;;;;;;;;;;;;;;8.64;63.67;95296.75;5046264;28;20020;-66
2022/11/15 00:19:01;;;;;;;;;;;;;;;8.62;63.36;95312.16;5052501;28;20084;-66
2022/11/15 00:21:27;;;;;;;;;;;;;;;8.58;63.50;95290.72;5050819;28;20021;-66
2022/11/15 00:23:52;;;;;;;;;;;;;;;8.55;63.43;95293.97;5052376;28;20013;-66
2022/11/15 00:26:18;;;;;;;;;;;;;;;8.53;63.36;95290.81;5049977;28;20014;-67
2022/11/15 00:28:43;;;;;;;;;;;;;;;8.50;63.30;95294.84;5052184;28;20013;-66
2022/11/15 00:31:11;;;;;;;;;;;;;;;8.47;63.65;95295.38;5050411;28;20009;-65
2022/11/15 00:33:36;;;;;;;;;;;;;;;8.44;63.43;95295.94;5051262;28;20037;-65
2022/11/15 00:36:06;;;;;;;;;;;;;;;8.43;63.34;95293.59;5049903;28;20510;-66
2022/11/15 00:38:32;;;;;;;;;;;;;;;8.40;63.43;95288.88;5050907;28;20014;-66
2022/11/15 00:40:57;;;;;;;;;;;;;;;8.34;63.11;95283.63;5051524;28;20056;-66
2022/11/15 00:43:23;;;;;;;;;;;;;;;8.30;63.44;95285.25;5052262;28;20060;-66
2022/11/15 00:45:48;;;;;;;;;;;;;;;8.26;63.14;95278.16;5045616;28;20512;-66
2022/11/15 00:48:13;;;;;;;;;;;;;;;8.23;63.51;95273.41;5050080;28;20021;-66
2022/11/15 00:50:38;;;;;;;;;;;;;;;8.21;63.64;95275.56;5051866;28;20036;-66
2022/11/15 00:53:03;;;;;;;;;;;;;;;8.18;63.73;95271.63;5050844;28;20501;-65
2022/11/15 00:55:28;;;;;;;;;;;;;;;8.17;63.67;95270.03;5049998;28;20017;-66
2022/11/15 00:57:54;;;;;;;;;;;;;;;8.17;63.66;95263.97;5051909;28;20009;-66
2022/11/15 01:00:19;;;;;;;;;;;;;;;8.17;63.85;95261.31;5049966;28;20032;-66
2022/11/15 01:02:44;;;;;;;;;;;;;;;8.16;63.69;95255.22;5049711;28;20351;-66
2022/11/15 01:05:09;;;;;;;;;;;;;;;8.21;63.73;95257.81;5051080;28;20021;-66
2022/11/15 01:07:35;;;;;;;;;;;;;;;8.24;63.08;95243.19;5050244;28;20009;-65
2022/11/15 01:10:00;;;;;;;;;;;;;;;8.29;63.09;95246.59;5051170;28;20060;-66
2022/11/15 01:12:25;;;;;;;;;;;;;;;8.33;62.67;95250.22;5050561;28;20009;-66
2022/11/15 01:14:50;;;;;;;;;;;;;;;8.37;62.61;95242.50;5048456;28;20477;-66
2022/11/15 01:17:16;;;;;;;;;;;;;;;8.38;62.29;95238.00;5050308;28;20077;-68
2022/11/15 01:19:41;;;;;;;;;;;;;;;8.40;62.54;95235.88;5050468;28;20438;-66
2022/11/15 01:22:06;;;;;;;;;;;;;;;8.41;62.15;95232.94;5051841;28;20108;-66
2022/11/15 01:24:31;;;;;;;;;;;;;;;8.43;61.76;95237.94;5043638;28;20010;-66
2022/11/15 01:26:56;;;;;;;;;;;;;;;8.44;62.15;95228.91;5030998;28;20018;-67
2022/11/15 01:29:22;;;;;;;;;;;;;;;8.44;61.84;95216.44;5033586;28;20385;-66
2022/11/15 01:31:47;;;;;;;;;;;;;;;8.42;61.79;95223.88;5045696;28;20018;-67
2022/11/15 01:34:12;;;;;;;;;;;;;;;8.39;61.63;95229.75;5046319;28;20073;-67
2022/11/15 01:36:37;;;;;;;;;;;;;;;8.35;61.76;95226.09;5049043;28;20455;-66
2022/11/15 01:39:02;;;;;;;;;;;;;;;8.29;62.00;95230.69;5050144;28;20005;-65
2022/11/15 01:41:29;;;;;;;;;;;;;;;8.25;61.50;95220.94;5051269;28;20013;-66
2022/11/15 01:43:56;;;;;;;;;;;;;;;8.21;61.64;95218.06;5048769;28;20063;-67
2022/11/15 01:46:21;;;;;;;;;;;;;;;8.21;61.73;95215.41;5049846;28;20010;-66
2022/11/15 01:48:46;;;;;;;;;;;;;;;8.21;62.27;95215.41;5049646;28;20420;-67
2022/11/15 01:51:13;;;;;;;;;;;;;;;8.22;61.74;95214.34;5049894;28;20017;-66
2022/11/15 01:53:40;;;;;;;;;;;;;;;8.20;61.77;95210.41;5050141;28;20024;-66
2022/11/15 01:56:07;;;;;;;;;;;;;;;7.76;63.01;95209.63;5048172;28;20112;-66
2022/11/15 01:58:32;;;;;;;;;;;;;;;7.76;63.20;95203.56;5049835;28;20002;-66
2022/11/15 02:00:58;;;;;;;;;;;;;;;7.94;63.28;95207.31;5039440;28;20009;-66
2022/11/15 02:03:26;;;;;;;;;;;;;;;7.98;62.67;95197.72;5039443;28;20059;-66
2022/11/15 02:05:52;;;;;;;;;;;;;;;8.01;62.47;95191.84;5035761;28;20016;-66
2022/11/15 02:08:21;;;;;;;;;;;;;;;7.99;62.47;95196.66;5044988;28;20063;-66
2022/11/15 02:10:46;;;;;;;;;;;;;;;7.91;61.87;95198.06;5040196;28;20013;-67
2022/11/15 02:13:13;;;;;;;;;;;;;;;7.92;62.12;95199.63;5045107;28;20059;-66
2022/11/15 02:15:43;;;;;;;;;;;;;;;7.90;62.01;95193.06;5041134;28;20010;-66
2022/11/15 02:18:10;;;;;;;;;;;;;;;7.90;62.39;95204.44;5039999;28;20009;-67
2022/11/15 02:21:11;;;;;;;;;;;;;;;7.84;61.83;95196.84;5045362;28;20021;-66
2022/11/15 02:23:54;;;;;;;;;;;;;;;7.77;62.51;95190.03;4987540;28;20010;-67
2022/11/15 02:26:38;;;;;;;;;;;;;;;7.62;62.50;95186.78;5026489;28;20010;-67
2022/11/15 02:29:14;;;;;;;;;;;;;;;7.65;62.65;95186.22;5036423;28;20410;-68
2022/11/15 02:31:49;;;;;;;;;;;;;;;7.61;62.48;95180.72;5047638;28;20016;-67
2022/11/15 02:34:28;;;;;;;;;;;;;;;7.61;62.67;95185.22;5047777;28;20055;-66
2022/11/15 02:36:59;;;;;;;;;;;;;;;7.61;62.91;95175.41;5049652;28;20506;-67
2022/11/15 02:39:32;;;;;;;;;;;;;;;7.59;62.75;95176.78;5047400;28;20063;-67
2022/11/15 02:42:01;;;;;;;;;;;;;;;7.57;62.48;95177.03;5036591;28;20022;-67
2022/11/15 02:44:32;;;;;;;;;;;;;;;7.55;62.42;95173.91;5043961;28;20522;-68
2022/11/15 02:47:14;;;;;;;;;;;;;;;7.55;62.42;95176.56;5048234;28;20027;-67
2022/11/15 02:49:42;;;;;;;;;;;;;;;7.49;63.02;95170.53;5048117;28;20485;-65
2022/11/15 02:52:08;;;;;;;;;;;;;;;7.47;62.91;95172.69;5048986;28;20025;-65
2022/11/15 02:54:33;;;;;;;;;;;;;;;7.47;62.80;95177.16;5048101;28;20014;-65
2022/11/15 02:57:12;;;;;;;;;;;;;;;7.45;62.44;95171.38;5047704;28;20009;-66
2022/11/15 02:59:46;;;;;;;;;;;;;;;7.43;62.62;95176.19;5049817;28;20013;-66
2022/11/15 03:02:38;;;;;;;;;;;;;;;7.40;62.78;95160.84;5047573;28;20473;-66
2022/11/15 03:05:18;;;;;;;;;;;;;;;7.38;62.63;95157.72;5046590;28;20782;-66
2022/11/15 03:08:06;;;;;;;;;;;;;;;7.36;62.86;95155.31;5029886;28;20014;-66
2022/11/15 03:10:45;;;;;;;;;;;;;;;7.34;62.48;95149.53;5031416;28;20326;-66
2022/11/15 03:13:22;;;;;;;;;;;;;;;7.33;62.91;95150.63;5045283;28;20010;-67
2022/11/15 03:15:54;;;;;;;;;;;;;;;7.32;63.08;95142.94;5047020;28;20422;-67
2022/11/15 03:18:23;;;;;;;;;;;;;;;7.27;63.08;95143.81;5049823;28;20512;-67
2022/11/15 03:20:50;;;;;;;;;;;;;;;7.29;63.13;95142.44;5048259;28;20428;-69
2022/11/15 03:23:16;;;;;;;;;;;;;;;7.27;63.12;95141.94;5047649;28;20010;-69
2022/11/15 03:25:43;;;;;;;;;;;;;;;7.18;62.92;95146.28;5045950;28;20167;-68
2022/11/15 03:28:12;;;;;;;;;;;;;;;7.01;63.23;95145.94;5048990;28;20010;-66
2022/11/15 03:30:38;;;;;;;;;;;;;;;7.10;63.59;95146.88;5048061;28;20052;-65
2022/11/15 03:33:04;;;;;;;;;;;;;;;7.08;63.78;95132.38;5048840;28;20010;-66
2022/11/15 03:35:32;;;;;;;;;;;;;;;7.13;63.29;95129.69;5047785;28;20021;-66
2022/11/15 03:37:58;;;;;;;;;;;;;;;7.13;63.08;95125.19;5048689;28;20547;-65
2022/11/15 03:40:28;;;;;;;;;;;;;;;7.13;62.88;95125.19;5048887;28;20010;-66
2022/11/15 03:42:53;;;;;;;;;;;;;;;7.13;62.77;95127.03;5049930;28;20087;-67
2022/11/15 03:45:23;;;;;;;;;;;;;;;7.09;63.04;95128.66;5047243;28;20014;-66
2022/11/15 03:47:54;;;;;;;;;;;;;;;7.07;63.09;95125.53;5050122;28;20470;-66
2022/11/15 03:50:20;;;;;;;;;;;;;;;7.03;63.37;95120.78;5048691;28;20021;-67
2022/11/15 03:52:47;;;;;;;;;;;;;;;7.00;63.38;95116.06;5051565;28;20036;-67
2022/11/15 03:55:13;;;;;;;;;;;;;;;6.95;62.71;95105.53;5056826;28;20014;-66
2022/11/15 03:57:38;;;;;;;;;;;;;;;6.91;62.98;95112.47;5053820;28;20742;-67
2022/11/15 04:00:04;;;;;;;;;;;;;;;6.92;62.96;95107.97;5053650;28;20067;-68
2022/11/15 04:02:29;;;;;;;;;;;;;;;6.94;62.98;95105.81;5050096;28;20045;-66
2022/11/15 04:04:55;;;;;;;;;;;;;;;6.93;63.19;95106.91;5052531;28;20012;-66
2022/11/15 04:07:20;;;;;;;;;;;;;;;6.97;63.47;95105.28;5052547;28;20011;-65
2022/11/15 04:10:03;;;;;;;;;;;;;;;7.00;63.73;95105.47;5053010;28;20155;-67
2022/11/15 04:12:40;;;;;;;;;;;;;;;7.03;63.46;95102.28;5052535;28;20021;-66
2022/11/15 04:15:07;;;;;;;;;;;;;;;7.04;62.71;95103.06;5047340;28;20009;-66
2022/11/15 04:17:33;;;;;;;;;;;;;;;7.06;63.38;95102.78;5053134;28;20409;-67
2022/11/15 04:25:26;;;;;;;;;;;;;;;7.12;62.86;95104.31;5052118;28;20097;-67
2022/11/15 04:27:51;;;;;;;;;;;;;;;7.21;63.34;95100.72;5063762;28;20112;-67
2022/11/15 04:30:16;;;;;;;;;;;;;;;7.27;63.03;95096.19;5044714;28;20021;-66
2022/11/15 04:32:41;;;;;;;;;;;;;;;7.31;62.86;95097.19;5044514;28;20014;-66
2022/11/15 04:35:07;;;;;;;;;;;;;;;7.35;62.34;95100.06;5051771;28;20442;-68
2022/11/15 04:37:32;;;;;;;;;;;;;;;7.37;62.16;95103.19;5052425;28;20063;-67
2022/11/15 04:39:57;;;;;;;;;;;;;;;7.35;62.61;95098.19;5051371;28;20116;-68
2022/11/15 04:42:22;;;;;;;;;;;;;;;7.38;61.93;95091.56;5052292;28;20013;-67
2022/11/15 04:44:48;;;;;;;;;;;;;;;7.36;62.19;95091.03;5051920;28;20014;-68
2022/11/15 04:47:13;;;;;;;;;;;;;;;6.60;62.15;94995.69;5050725;28;20470;-66
2022/11/15 04:49:38;;;;;;;;;;;;;;;7.30;62.36;95091.09;5051237;28;20060;-67
2022/11/15 04:52:03;;;;;;;;;;;;;;;7.25;62.49;95088.50;5051482;28;20025;-66
2022/11/15 04:54:29;;;;;;;;;;;;;;;7.25;62.60;95085.88;5051323;28;20009;-68
2022/11/15 04:56:54;;;;;;;;;;;;;;;7.25;61.77;95085.88;5051443;28;20010;-68
2022/11/15 04:59:19;;;;;;;;;;;;;;;7.24;61.80;95083.53;5051913;28;20013;-68
2022/11/15 05:01:44;;;;;;;;;;;;;;;7.23;61.74;95079.31;5049930;28;20013;-69
2022/11/15 05:04:18;;;;;;;;;;;;;;;7.21;62.21;95082.22;5049937;28;20031;-67
2022/11/15 05:06:44;;;;;;;;;;;;;;;7.17;62.12;95075.94;5050784;28;20021;-67
2022/11/15 05:09:09;;;;;;;;;;;;;;;7.14;62.29;95067.78;5050931;28;20013;-67
2022/11/15 05:11:34;;;;;;;;;;;;;;;7.11;61.80;95068.31;5050026;28;20014;-67
2022/11/15 05:13:59;;;;;;;;;;;;;;;7.11;62.15;95065.69;5051768;28;20398;-68
2022/11/15 05:16:25;;;;;;;;;;;;;;;7.10;62.25;95064.13;5048299;28;20020;-67
2022/11/15 05:18:51;;;;;;;;;;;;;;;7.07;62.04;95060.19;5051415;28;20006;-67
2022/11/15 05:21:16;;;;;;;;;;;;;;;7.06;62.23;95060.44;5050525;28;20068;-67
2022/11/15 05:23:41;;;;;;;;;;;;;;;7.06;61.77;95053.31;5049791;28;20049;-66
2022/11/15 05:26:07;;;;;;;;;;;;;;;7.05;61.53;95057.03;5040690;28;20014;-66
2022/11/15 05:28:33;;;;;;;;;;;;;;;7.03;62.16;95054.66;5051320;28;20049;-67
2022/11/15 05:31:16;;;;;;;;;;;;;;;6.98;62.16;95059.25;5050352;28;20013;-67
2022/11/15 05:33:42;;;;;;;;;;;;;;;6.83;63.07;95060.19;5050121;28;20010;-66
2022/11/15 05:36:12;;;;;;;;;;;;;;;6.90;62.19;95062.50;5046870;28;20117;-66
2022/11/15 05:38:37;;;;;;;;;;;;;;;6.91;62.51;95059.59;5034700;28;20013;-66
2022/11/15 05:41:03;;;;;;;;;;;;;;;6.91;61.96;95054.31;5038419;28;20052;-67
2022/11/15 05:43:30;;;;;;;;;;;;;;;6.90;61.79;95036.84;5038104;28;20422;-66
2022/11/15 05:45:56;;;;;;;;;;;;;;;6.90;62.50;95046.63;5048273;28;20482;-67
2022/11/15 05:48:22;;;;;;;;;;;;;;;6.89;62.48;95042.41;5050681;28;20128;-66
2022/11/15 05:50:47;;;;;;;;;;;;;;;6.88;62.27;95043.50;5048771;28;20156;-67
2022/11/15 05:53:14;;;;;;;;;;;;;;;6.87;62.50;95037.41;5050477;28;20485;-67
2022/11/15 05:55:39;;;;;;;;;;;;;;;6.86;62.42;95029.75;5049377;28;20470;-66
2022/11/15 05:58:05;;;;;;;;;;;;;;;6.83;62.30;95033.75;5050972;28;20005;-67
2022/11/15 06:00:30;;;;;;;;;;;;;;;6.81;62.24;95037.75;5048861;28;20400;-66
2022/11/15 06:02:55;;;;;;;;;;;;;;;6.75;62.50;95039.66;5050769;28;20009;-67
2022/11/15 06:05:20;;;;;;;;;;;;;;;6.70;61.86;95045.00;5047768;28;20523;-66
2022/11/15 06:07:45;;;;;;;;;;;;;;;6.66;61.72;95036.09;5050530;28;20028;-70
2022/11/15 06:10:11;;;;;;;;;;;;;;;6.61;62.76;95034.28;5047653;28;20065;-67
2022/11/15 06:12:37;;;;;;;;;;;;;;;6.62;62.48;95030.56;5045324;28;20009;-68
2022/11/15 06:15:02;;;;;;;;;;;;;;;6.64;62.84;95033.69;5047522;28;20013;-68
2022/11/15 06:17:28;;;;;;;;;;;;;;;6.65;62.46;95027.34;5049680;28;20014;-67
2022/11/15 06:19:53;;;;;;;;;;;;;;;6.67;62.87;95027.84;5037054;28;20020;-69
2022/11/15 06:22:18;;;;;;;;;;;;;;;6.70;62.95;95027.28;5034516;28;20478;-71
2022/11/15 06:24:44;;;;;;;;;;;;;;;5.14;62.06;94797.06;5044660;28;20014;-68
2022/11/15 06:27:10;;;;;;;;;;;;;;;6.80;62.81;95025.59;5050102;28;20013;-69
2022/11/15 06:29:35;;;;;;;;;;;;;;;6.80;62.43;95026.38;5049048;28;20018;-69
2022/11/15 06:32:01;;;;;;;;;;;;;;;6.87;62.37;95021.56;5049132;28;20014;-69
2022/11/15 06:34:26;;;;;;;;;;;;;;;6.92;62.71;95023.34;5046480;28;20108;-68
2022/11/15 06:36:51;;;;;;;;;;;;;;;6.94;62.00;95021.97;5048290;28;20053;-68
2022/11/15 06:39:17;;;;;;;;;;;;;;;6.97;62.12;95018.78;5049054;28;20382;-68
2022/11/15 06:41:42;;;;;;;;;;;;;;;7.02;61.89;95020.59;5050094;28;20354;-69
2022/11/15 06:44:07;;;;;;;;;;;;;;;7.08;61.74;95016.78;5039427;28;20028;-68
2022/11/15 06:46:32;;;;;;;;;;;;;;;7.13;62.07;95023.88;5041636;28;20013;-69
2022/11/15 06:48:57;;;;;;;;;;;;;;;7.19;62.26;95023.53;5048258;28;20022;-67
2022/11/15 06:51:23;;;;;;;;;;;;;;;7.25;61.79;95030.31;5065403;28;20460;-68
2022/11/15 06:53:48;;;;;;;;;;;;;;;7.32;61.67;95032.63;5064282;28;20014;-67
2022/11/15 06:56:13;;;;;;;;;;;;;;;7.33;60.96;95044.78;5048498;28;20150;-67
2022/11/15 06:58:38;;;;;;;;;;;;;;;7.34;61.14;95029.69;5046436;28;20470;-66
2022/11/15 07:01:05;;;;;;;;;;;;;;;7.39;61.50;95038.34;5047553;28;20064;-67
2022/11/15 07:03:30;;;;;;;;;;;;;;;7.44;60.94;95040.13;5049855;28;20005;-67
2022/11/15 07:05:56;;;;;;;;;;;;;;;7.46;61.30;95041.41;5048197;28;20395;-66
2022/11/15 07:08:22;;;;;;;;;;;;;;;7.47;61.52;95043.00;5048507;28;20524;-66
2022/11/15 07:10:47;;;;;;;;;;;;;;;7.58;61.04;95045.50;5049030;28;20096;-67
2022/11/15 07:13:13;;;;;;;;;;;;;;;7.65;61.24;95046.72;5049749;28;20098;-68
2022/11/15 07:15:38;;;;;;;;;;;;;;;7.71;60.71;95052.72;5049247;28;20048;-67
2022/11/15 07:18:03;;;;;;;;;;;;;;;7.75;60.76;95051.84;5049850;28;20005;-67
2022/11/15 07:20:29;;;;;;;;;;;;;;;7.83;60.35;95047.78;5047743;28;20378;-67
2022/11/15 07:23:01;;;;;;;;;;;;;;;7.88;60.56;95060.91;5048889;28;20595;-68
2022/11/15 07:25:26;;;;;;;;;;;;;;;7.91;60.82;95049.75;5049054;28;20477;-67
2022/11/15 07:27:58;;;;;;;;;;;;;;;7.97;60.70;95056.53;5052184;28;20012;-66
2022/11/15 07:30:24;;;;;;;;;;;;;;;8.04;60.52;95048.25;5053160;28;20024;-67
2022/11/15 07:33:07;;;;;;;;;;;;;;;8.12;60.37;95039.63;5053263;28;20010;-66
2022/11/15 07:35:32;;;;;;;;;;;;;;;8.24;60.36;95033.84;5051203;28;20014;-67
2022/11/15 07:37:59;;;;;;;;;;;;;;;8.33;60.03;95030.25;5051957;28;20017;-66
2022/11/15 07:40:24;;;;;;;;;;;;;;;8.46;59.66;95020.78;5053575;28;20553;-67
2022/11/15 07:42:52;;;;;;;;;;;;;;;8.52;59.42;95027.56;5050746;28;20112;-67
2022/11/15 07:45:18;;;;;;;;;;;;;;;8.65;59.10;95022.56;5052765;28;20064;-67
2022/11/15 07:47:50;;;;;;;;;;;;;;;8.78;58.82;95025.22;5051860;28;20010;-67
2022/11/15 07:50:17;;;;;;;;;;;;;;;8.96;58.22;95022.78;5051379;28;20021;-67
2022/11/15 07:52:42;;;;;;;;;;;;;;;9.08;57.82;95020.41;5053186;28;20012;-68
2022/11/15 07:55:07;;;;;;;;;;;;;;;9.20;58.07;95010.03;5051487;28;20231;-67
2022/11/15 07:57:32;;;;;;;;;;;;;;;9.34;57.74;95002.06;5052972;28;20013;-68
2022/11/15 07:59:58;;;;;;;;;;;;;;;9.47;57.25;95001.25;5051836;28;20012;-67
2022/11/15 08:02:23;;;;;;;;;;;;;;;9.58;57.35;94996.50;5068420;28;20013;-68
2022/11/15 08:04:48;;;;;;;;;;;;;;;9.69;56.57;94997.03;5052444;28;20128;-68
2022/11/15 08:07:13;;;;;;;;;;;;;;;9.81;56.24;94995.41;5052853;28;20032;-69
2022/11/15 08:09:39;;;;;;;;;;;;;;;9.94;56.03;94995.66;5052546;28;20057;-68
2022/11/15 08:12:04;;;;;;;;;;;;;;;10.04;56.60;94984.78;5052074;28;20071;-67
2022/11/15 08:14:29;;;;;;;;;;;;;;;10.12;55.56;94982.16;5052681;28;20451;-67
2022/11/15 08:16:55;;;;;;;;;;;;;;;10.20;55.39;94978.00;5052244;28;20005;-66
2022/11/15 08:19:20;;;;;;;;;;;;;;;10.33;55.33;94977.13;5052615;28;20048;-65
2022/11/15 08:21:45;;;;;;;;;;;;;;;10.43;54.98;94970.78;5052064;28;20017;-65
2022/11/15 08:24:10;;;;;;;;;;;;;;;10.52;55.00;94968.16;5052702;28;20350;-65
2022/11/15 08:26:38;;;;;;;;;;;;;;;10.60;54.31;94964.75;5051244;28;20414;-66
2022/11/15 08:29:03;;;;;;;;;;;;;;;10.64;53.65;94968.34;5052470;28;20624;-66
2022/11/15 08:31:28;;;;;;;;;;;;;;;10.81;54.44;94963.09;5051540;28;20014;-64
2022/11/15 08:33:54;;;;;;;;;;;;;;;10.89;53.39;94964.97;5052478;28;20059;-64
2022/11/15 08:36:19;;;;;;;;;;;;;;;11.03;53.79;94967.53;5051924;28;20060;-64
2022/11/15 08:38:44;;;;;;;;;;;;;;;11.11;53.20;94958.78;5051924;28;20051;-65
2022/11/15 08:41:12;;;;;;;;;;;;;;;11.19;52.11;94967.84;5052254;28;20015;-65
2022/11/15 08:43:37;;;;;;;;;;;;;;;10.83;52.04;94971.53;5050908;28;20028;-65
2022/11/15 08:46:02;;;;;;;;;;;;;;;10.75;52.54;94968.84;5051775;28;20006;-65
2022/11/15 08:48:29;;;;;;;;;;;;;;;10.76;52.41;94967.78;5052037;28;20044;-65
2022/11/15 08:50:55;;;;;;;;;;;;;;;10.90;51.80;94969.22;5052104;28;20537;-65
2022/11/15 08:53:20;;;;;;;;;;;;;;;11.09;51.61;94968.94;5052084;28;20014;-65
2022/11/15 08:55:45;;;;;;;;;;;;;;;10.98;52.22;94972.22;5050219;28;20417;-65
2022/11/15 08:58:10;;;;;;;;;;;;;;;11.18;51.14;94968.97;5051829;28;20014;-65
2022/11/15 09:00:36;;;;;;;;;;;;;;;11.43;51.67;94959.44;5051655;28;20006;-64
2022/11/15 09:03:03;;;;;;;;;;;;;;;11.58;50.69;94960.84;5052011;28;20013;-63
2022/11/15 09:05:28;;;;;;;;;;;;;;;12.00;50.83;94947.81;5049165;28;20488;-64
2022/11/15 09:07:54;;;;;;;;;;;;;;;12.19;50.63;94948.22;5050598;28;20021;-65
2022/11/15 09:10:19;;;;;;;;;;;;;;;12.30;49.90;94944.13;5051617;28;20645;-67
2022/11/15 09:12:48;;;;;;;;;;;;;;;12.39;49.54;94934.22;5050364;28;20566;-67
2022/11/15 09:15:13;;;;;;;;;;;;;;;12.49;49.65;94938.41;5051242;28;20014;-65
2022/11/15 09:17:38;;;;;;;;;;;;;;;12.55;49.03;94937.13;5050552;28;20437;-66
2022/11/15 09:20:04;;;;;;;;;;;;;;;12.55;51.12;94931.00;5051572;28;20032;-69
2022/11/15 09:22:29;;;;;;;;;;;;;;;12.72;50.66;94922.91;5051707;28;20006;-70
2022/11/15 09:24:54;;;;;;;;;;;;;;;13.14;50.11;94918.41;5051309;28;20012;-69
2022/11/15 09:27:20;;;;;;;;;;;;;;;13.27;49.07;94917.41;5050910;28;20017;-69
2022/11/15 09:29:45;;;;;;;;;;;;;;;13.30;47.25;94915.16;5051348;28;20374;-69
2022/11/15 09:32:10;;;;;;;;;;;;;;;13.37;47.85;94913.56;5051156;28;20010;-70
2022/11/15 09:34:35;;;;;;;;;;;;;;;13.46;46.85;94906.25;5050027;28;20006;-66
2022/11/15 09:37:00;;;;;;;;;;;;;;;13.64;45.63;94901.53;5050146;28;20020;-66
2022/11/15 09:39:26;;;;;;;;;;;;;;;13.75;45.25;94891.22;5050701;28;20018;-66
2022/11/15 09:42:10;;;;;;;;;;;;;;;13.83;44.95;94898.38;5051181;28;20088;-66
2022/11/15 09:44:43;;;;;;;;;;;;;;;13.80;44.28;94893.66;5056595;28;20017;-65
2022/11/15 09:47:14;;;;;;;;;;;;;;;13.75;44.22;94899.22;5050085;28;20736;-66
2022/11/15 09:49:39;;;;;;;;;;;;;;;13.78;44.19;94888.66;5050171;28;20059;-65
2022/11/15 09:52:04;;;;;;;;;;;;;;;13.86;43.73;94892.34;5051581;28;20350;-69
2022/11/15 09:54:34;;;;;;;;;;;;;;;13.74;43.04;94881.63;5050137;28;20009;-66
2022/11/15 09:57:10;;;;;;;;;;;;;;;13.97;44.05;94874.78;5049080;28;20014;-67
2022/11/15 09:59:36;;;;;;;;;;;;;;;13.94;43.38;94870.09;5048861;28;20014;-67
2022/11/15 10:02:04;;;;;;;;;;;;;;;14.00;43.63;94874.13;5030333;28;20010;-69
2022/11/15 10:04:29;;;;;;;;;;;;;;;14.12;43.12;94878.69;5030244;28;20010;-67
2022/11/15 10:07:11;;;;;;;;;;;;;;;14.11;42.75;94871.00;5038129;28;20021;-66
2022/11/15 10:09:45;;;;;;;;;;;;;;;14.10;42.35;94866.78;5043426;28;20017;-69
2022/11/15 10:12:12;;;;;;;;;;;;;;;14.21;42.48;94866.00;5041094;28;20029;-68
2022/11/15 10:14:37;;;;;;;;;;;;;;;14.23;42.55;94865.69;5054721;28;20091;-68
2022/11/15 10:17:21;;;;;;;;;;;;;;;14.27;42.03;94869.25;5049215;28;20456;-70
2022/11/15 10:19:56;;;;;;;;;;;;;;;14.32;41.88;94863.66;5050381;28;20100;-68
2022/11/15 10:22:21;;;;;;;;;;;;;;;14.32;42.27;94855.66;5040020;28;20016;-70
2022/11/15 10:24:46;;;;;;;;;;;;;;;14.41;41.90;94852.88;5029767;28;20389;-70
2022/11/15 10:27:16;;;;;;;;;;;;;;;14.52;41.86;94854.78;5039120;28;20018;-68
2022/11/15 10:29:45;;;;;;;;;;;;;;;14.60;42.31;94844.31;5049139;28;20068;-69
2022/11/15 10:32:11;;;;;;;;;;;;;;;14.60;41.76;94844.31;5030396;28;20013;-68
2022/11/15 10:34:37;;;;;;;;;;;;;;;14.69;41.54;94842.28;5029416;28;20421;-67
2022/11/15 10:37:03;;;;;;;;;;;;;;;14.74;41.40;94828.66;5035706;28;20013;-68
2022/11/15 10:39:29;;;;;;;;;;;;;;;14.76;41.31;94821.88;5049370;28;20020;-68
2022/11/15 10:41:54;;;;;;;;;;;;;;;14.81;40.78;94826.22;5049484;28;20444;-64
2022/11/15 10:44:19;;;;;;;;;;;;;;;14.88;40.85;94814.91;5050765;28;20022;-65
2022/11/15 10:46:48;;;;;;;;;;;;;;;14.83;40.29;94815.94;5050053;28;20005;-70
2022/11/15 10:49:17;;;;;;;;;;;;;;;14.66;40.26;94816.97;5049940;28;20018;-68
2022/11/15 10:51:53;;;;;;;;;;;;;;;14.96;40.63;94811.34;5047367;28;20496;-70
2022/11/15 10:54:29;;;;;;;;;;;;;;;14.96;39.59;94803.31;5029198;28;20016;-66
2022/11/15 10:56:57;;;;;;;;;;;;;;;15.11;39.36;94797.22;5030181;28;20541;-67
2022/11/15 10:59:30;;;;;;;;;;;;;;;15.18;39.75;94791.28;5038086;28;20121;-67
2022/11/15 11:01:56;;;;;;;;;;;;;;;15.30;40.11;94785.84;5047362;28;20014;-66
2022/11/15 11:04:21;;;;;;;;;;;;;;;15.33;39.78;94782.50;5049441;28;20024;-66
2022/11/15 11:06:51;;;;;;;;;;;;;;;15.42;40.38;94783.13;5049777;28;20006;-68
2022/11/15 11:09:27;;;;;;;;;;;;;;;15.44;39.91;94780.88;5047777;28;20013;-68
2022/11/15 11:11:52;;;;;;;;;;;;;;;15.42;39.55;94777.78;5029307;28;20013;-68
2022/11/15 11:14:21;;;;;;;;;;;;;;;15.38;40.09;94770.75;5048459;28;20159;-69
2022/11/15 11:16:52;;;;;;;;;;;;;;;15.42;39.61;94763.59;5047403;28;20462;-69
2022/11/15 11:19:21;;;;;;;;;;;;;;;15.23;39.74;94761.56;5049066;28;20017;-68
2022/11/15 11:21:54;;;;;;;;;;;;;;;15.57;39.88;94755.56;5050883;28;20740;-68
2022/11/15 11:24:32;;;;;;;;;;;;;;;15.66;39.45;94751.97;5048223;28;20021;-69
2022/11/15 11:27:16;;;;;;;;;;;;;;;15.71;39.15;94751.69;5049596;28;20013;-69
2022/11/15 11:29:44;;;;;;;;;;;;;;;15.63;39.24;94744.59;5048781;28;20020;-68
2022/11/15 11:32:21;;;;;;;;;;;;;;;15.59;38.69;94739.13;5048730;28;20082;-69
2022/11/15 11:35:03;;;;;;;;;;;;;;;15.78;38.76;94733.91;5048400;28;20400;-68
2022/11/15 11:37:46;;;;;;;;;;;;;;;15.86;38.90;94729.47;5049961;28;20013;-69
2022/11/15 11:40:12;;;;;;;;;;;;;;;15.78;37.83;94725.84;5048153;28;20020;-68
2022/11/15 11:42:59;;;;;;;;;;;;;;;15.72;37.68;94734.50;5048582;28;20013;-68
2022/11/15 11:45:27;;;;;;;;;;;;;;;15.88;38.13;94723.78;5048279;28;20021;-68
2022/11/15 11:48:02;;;;;;;;;;;;;;;15.89;37.33;94717.28;5048574;28;20017;-68
2022/11/15 11:50:28;;;;;;;;;;;;;;;15.87;37.00;94725.69;5049915;28;20021;-67
2022/11/15 11:53:05;;;;;;;;;;;;;;;16.04;37.18;94725.31;5048894;28;20013;-67
2022/11/15 11:55:42;;;;;;;;;;;;;;;15.90;37.55;94726.88;5048128;28;20624;-68
2022/11/15 11:58:20;;;;;;;;;;;;;;;16.15;37.49;94714.06;5049701;28;20013;-68
2022/11/15 12:00:54;;;;;;;;;;;;;;;16.23;37.54;94715.78;5048075;28;20020;-68
2022/11/15 12:03:28;;;;;;;;;;;;;;;15.96;37.59;94712.06;5029964;28;20010;-67
2022/11/15 12:05:56;;;;;;;;;;;;;;;16.05;37.88;94710.00;5028376;28;20010;-68
2022/11/15 12:08:32;;;;;;;;;;;;;;;16.18;37.58;94700.72;5029417;28;20518;-67
2022/11/15 12:11:10;;;;;;;;;;;;;;;16.20;37.19;94693.09;5042255;28;20072;-68
2022/11/15 12:13:36;;;;;;;;;;;;;;;16.27;37.21;94697.81;5050240;28;20009;-67
2022/11/15 12:16:17;;;;;;;;;;;;;;;16.16;37.03;94694.91;5051814;28;20005;-67
2022/11/15 12:18:48;;;;;;;;;;;;;;;16.21;37.13;94691.94;5053261;28;20006;-67
2022/11/15 12:21:16;;;;;;;;;;;;;;;16.36;37.07;94696.50;5050710;28;20525;-67
2022/11/15 12:23:50;;;;;;;;;;;;;;;16.30;37.17;94695.22;5051339;28;20100;-67
2022/11/15 12:26:17;;;;;;;;;;;;;;;16.37;36.43;94692.69;5052372;28;20005;-67
2022/11/15 12:28:58;;;;;;;;;;;;;;;16.34;36.49;94689.94;5052497;28;20010;-66
2022/11/15 12:31:36;;;;;;;;;;;;;;;16.54;36.55;94682.69;5046225;28;20014;-66
2022/11/15 12:34:13;;;;;;;;;;;;;;;16.70;36.84;94691.47;5037856;28;20019;-67
2022/11/15 12:36:40;;;;;;;;;;;;;;;16.74;36.24;94683.50;5067139;28;20412;-67
2022/11/15 12:39:06;;;;;;;;;;;;;;;16.65;36.44;94678.31;5052388;28;20028;-67
2022/11/15 12:41:35;;;;;;;;;;;;;;;16.75;36.84;94680.47;5050535;28;20466;-67
2022/11/15 12:44:01;;;;;;;;;;;;;;;16.58;36.72;94684.31;5062882;28;20017;-67
2022/11/15 12:46:30;;;;;;;;;;;;;;;16.84;36.51;94674.88;5049132;28;20659;-67
2022/11/15 12:48:58;;;;;;;;;;;;;;;16.90;36.11;94673.47;5052150;28;20014;-68
2022/11/15 12:51:41;;;;;;;;;;;;;;;16.99;36.51;94671.31;5051200;28;20112;-68
2022/11/15 12:54:21;;;;;;;;;;;;;;;16.96;36.41;94668.56;5043832;28;20012;-67
2022/11/15 12:57:06;;;;;;;;;;;;;;;16.45;36.50;94618.47;5050889;28;20013;-67
2022/11/15 12:59:51;;;;;;;;;;;;;;;16.85;36.23;94663.78;5040337;28;20378;-67
2022/11/15 13:02:37;;;;;;;;;;;;;;;16.89;36.42;94661.16;5049520;28;20014;-67
2022/11/15 13:05:22;;;;;;;;;;;;;;;16.84;36.34;94656.06;5049659;28;20021;-67